Terminal Aerodrome Forecast
Issued by NWS

Home | Current Version | Previous Version | Text Only | Print | Product List | Glossary On
Versions: 1 2 3 4 5 6 7 8 9 10 11 12 13 14 15 16 17 18 19 20 21 22 23 24 25 26 27 28 29 30 31
000
FTUS43 KDMX 111733
TAFMCW
TAF
KMCW 111733Z 1118/1218 17006KT P6SM BKN035
     FM120000 19007KT 5SM -SN BKN015
     FM120300 23008KT 5SM BR BKN020
     FM120700 30009KT P6SM OVC025
     FM121400 32017G22KT P6SM FEW030=

USA.gov is the U.S. government's official web portal to all federal, state and local government web resources and services.